Terminal Aerodrome Forecast
Issued by NWS

Home | Current Version | Previous Version | Text Only | Print | Product List | Glossary Off
Versions: 1 2 3 4 5 6 7 8 9 10 11 12

000
FTUS43 KICT 052345
TAFRSL
TAF
KRSL 052345Z 0600/0624 15007KT P6SM BKN350
     FM061200 19009KT P6SM SCT130 BKN350
     FM061400 18017G25KT P6SM BKN150
     FM061700 19022G26KT P6SM BKN130=

USA.gov is the U.S. government's official web portal to all federal, state and local government web resources and services.